Terminal Aerodrome Forecast
Issued by NWS

Home | Current Version | Previous Version | Text Only | Print | Product List | Glossary On
Versions: 1 2 3 4 5 6 7 8 9 10 11 12 13 14 15 16 17 18 19 20 21
000
FTUS46 KSEW 271400 AAA
TAFHQM
TAF AMD
KHQM 271426Z 2714/2812 03006KT 4SM -SHRA BR SCT013 BKN025 OVC045
      TEMPO 2714/2718 2SM SHRA BR BKN007 OVC016
     FM271800 05007KT P6SM SCT025 BKN060
     FM272300 04010KT P6SM SCT050=

USA.gov is the U.S. government's official web portal to all federal, state and local government web resources and services.